sensor_id;sensor_type;location;lat;lon;timestamp;P1;durP1;ratioP1;P2;durP2;ratioP2
11835;SDS011;5977;51.972;7.640;2022-12-07T00:01:05;155.47;;;49.00;;
11835;SDS011;5977;51.972;7.640;2022-12-07T00:03:33;155.70;;;49.07;;
11835;SDS011;5977;51.972;7.640;2022-12-07T00:06:02;155.07;;;48.83;;
11835;SDS011;5977;51.972;7.640;2022-12-07T00:08:31;155.13;;;48.87;;
11835;SDS011;5977;51.972;7.640;2022-12-07T00:11:00;155.47;;;48.97;;
11835;SDS011;5977;51.972;7.640;2022-12-07T00:13:29;155.97;;;49.13;;
11835;SDS011;5977;51.972;7.640;2022-12-07T00:15:59;155.33;;;48.93;;
11835;SDS011;5977;51.972;7.640;2022-12-07T00:18:29;156.00;;;49.20;;
11835;SDS011;5977;51.972;7.640;2022-12-07T00:21:00;155.70;;;49.07;;
11835;SDS011;5977;51.972;7.640;2022-12-07T00:23:29;155.37;;;49.07;;
11835;SDS011;5977;51.972;7.640;2022-12-07T00:26:02;154.70;;;48.43;;
11835;SDS011;5977;51.972;7.640;2022-12-07T00:28:31;155.90;;;49.13;;
11835;SDS011;5977;51.972;7.640;2022-12-07T00:31:00;155.70;;;49.03;;
11835;SDS011;5977;51.972;7.640;2022-12-07T00:33:31;155.47;;;49.00;;
11835;SDS011;5977;51.972;7.640;2022-12-07T00:35:59;155.63;;;49.20;;
11835;SDS011;5977;51.972;7.640;2022-12-07T00:38:28;155.27;;;49.07;;
11835;SDS011;5977;51.972;7.640;2022-12-07T00:40:58;155.67;;;49.20;;
11835;SDS011;5977;51.972;7.640;2022-12-07T00:43:27;156.30;;;49.37;;
11835;SDS011;5977;51.972;7.640;2022-12-07T00:45:56;155.50;;;49.10;;
11835;SDS011;5977;51.972;7.640;2022-12-07T00:48:24;155.63;;;49.13;;
11835;SDS011;5977;51.972;7.640;2022-12-07T00:50:54;155.53;;;49.03;;
11835;SDS011;5977;51.972;7.640;2022-12-07T00:53:22;155.03;;;48.90;;
11835;SDS011;5977;51.972;7.640;2022-12-07T00:55:50;155.37;;;49.07;;
11835;SDS011;5977;51.972;7.640;2022-12-07T00:58:18;155.60;;;49.10;;
11835;SDS011;5977;51.972;7.640;2022-12-07T01:00:46;155.17;;;48.87;;
11835;SDS011;5977;51.972;7.640;2022-12-07T01:03:14;155.47;;;49.00;;
11835;SDS011;5977;51.972;7.640;2022-12-07T01:05:48;155.23;;;48.90;;
11835;SDS011;5977;51.972;7.640;2022-12-07T01:08:18;155.37;;;49.10;;
11835;SDS011;5977;51.972;7.640;2022-12-07T01:10:46;154.90;;;48.77;;
11835;SDS011;5977;51.972;7.640;2022-12-07T01:13:15;154.80;;;48.67;;
11835;SDS011;5977;51.972;7.640;2022-12-07T01:15:43;155.47;;;48.90;;
11835;SDS011;5977;51.972;7.640;2022-12-07T01:18:12;154.97;;;48.67;;
11835;SDS011;5977;51.972;7.640;2022-12-07T01:20:39;154.57;;;48.60;;
11835;SDS011;5977;51.972;7.640;2022-12-07T01:23:07;155.60;;;48.97;;
11835;SDS011;5977;51.972;7.640;2022-12-07T01:25:37;156.07;;;49.30;;
11835;SDS011;5977;51.972;7.640;2022-12-07T01:28:04;155.50;;;49.03;;
11835;SDS011;5977;51.972;7.640;2022-12-07T01:30:32;155.77;;;49.10;;
11835;SDS011;5977;51.972;7.640;2022-12-07T01:33:00;155.70;;;49.07;;
11835;SDS011;5977;51.972;7.640;2022-12-07T01:35:28;155.63;;;49.30;;
11835;SDS011;5977;51.972;7.640;2022-12-07T01:37:56;155.13;;;48.70;;
11835;SDS011;5977;51.972;7.640;2022-12-07T01:40:23;155.40;;;49.07;;
11835;SDS011;5977;51.972;7.640;2022-12-07T01:42:53;155.33;;;48.93;;
11835;SDS011;5977;51.972;7.640;2022-12-07T01:45:31;155.30;;;48.93;;
11835;SDS011;5977;51.972;7.640;2022-12-07T01:48:04;155.07;;;48.83;;
11835;SDS011;5977;51.972;7.640;2022-12-07T01:50:34;154.97;;;48.93;;
11835;SDS011;5977;51.972;7.640;2022-12-07T01:53:03;155.47;;;48.93;;
11835;SDS011;5977;51.972;7.640;2022-12-07T01:55:34;155.10;;;48.80;;
11835;SDS011;5977;51.972;7.640;2022-12-07T01:58:06;154.67;;;48.77;;
11835;SDS011;5977;51.972;7.640;2022-12-07T02:00:34;155.50;;;48.97;;
11835;SDS011;5977;51.972;7.640;2022-12-07T02:03:04;155.10;;;48.87;;
11835;SDS011;5977;51.972;7.640;2022-12-07T02:05:34;155.27;;;48.73;;
11835;SDS011;5977;51.972;7.640;2022-12-07T02:08:05;155.27;;;48.80;;
11835;SDS011;5977;51.972;7.640;2022-12-07T02:10:34;155.33;;;49.00;;
11835;SDS011;5977;51.972;7.640;2022-12-07T02:13:04;155.63;;;49.13;;
11835;SDS011;5977;51.972;7.640;2022-12-07T02:15:39;154.73;;;48.73;;
11835;SDS011;5977;51.972;7.640;2022-12-07T02:18:16;155.07;;;48.90;;
11835;SDS011;5977;51.972;7.640;2022-12-07T02:20:52;155.73;;;49.20;;
11835;SDS011;5977;51.972;7.640;2022-12-07T02:23:34;155.07;;;48.73;;
11835;SDS011;5977;51.972;7.640;2022-12-07T02:26:13;155.20;;;49.00;;
11835;SDS011;5977;51.972;7.640;2022-12-07T02:29:12;155.10;;;48.90;;
11835;SDS011;5977;51.972;7.640;2022-12-07T02:31:44;154.97;;;48.90;;
11835;SDS011;5977;51.972;7.640;2022-12-07T02:34:16;154.67;;;48.80;;
11835;SDS011;5977;51.972;7.640;2022-12-07T02:36:51;155.10;;;48.87;;
11835;SDS011;5977;51.972;7.640;2022-12-07T02:39:24;155.03;;;48.97;;
11835;SDS011;5977;51.972;7.640;2022-12-07T02:41:59;154.77;;;48.80;;
11835;SDS011;5977;51.972;7.640;2022-12-07T02:44:31;155.07;;;48.93;;
11835;SDS011;5977;51.972;7.640;2022-12-07T02:47:01;154.43;;;48.60;;
11835;SDS011;5977;51.972;7.640;2022-12-07T02:49:30;154.60;;;48.67;;
11835;SDS011;5977;51.972;7.640;2022-12-07T02:51:59;155.27;;;48.97;;
11835;SDS011;5977;51.972;7.640;2022-12-07T02:54:27;154.80;;;48.77;;
11835;SDS011;5977;51.972;7.640;2022-12-07T02:56:56;156.03;;;49.33;;
11835;SDS011;5977;51.972;7.640;2022-12-07T02:59:35;155.27;;;49.00;;
11835;SDS011;5977;51.972;7.640;2022-12-07T03:02:14;153.67;;;48.23;;
11835;SDS011;5977;51.972;7.640;2022-12-07T03:04:50;155.13;;;49.03;;
11835;SDS011;5977;51.972;7.640;2022-12-07T03:07:26;155.00;;;48.80;;
11835;SDS011;5977;51.972;7.640;2022-12-07T03:10:01;155.10;;;48.97;;
11835;SDS011;5977;51.972;7.640;2022-12-07T03:12:35;155.13;;;48.97;;
11835;SDS011;5977;51.972;7.640;2022-12-07T03:15:14;155.10;;;48.83;;
11835;SDS011;5977;51.972;7.640;2022-12-07T03:17:46;154.67;;;48.60;;
11835;SDS011;5977;51.972;7.640;2022-12-07T03:20:16;154.63;;;48.73;;
11835;SDS011;5977;51.972;7.640;2022-12-07T03:22:46;154.83;;;49.00;;
11835;SDS011;5977;51.972;7.640;2022-12-07T03:25:15;155.07;;;48.90;;
11835;SDS011;5977;51.972;7.640;2022-12-07T03:27:44;154.07;;;48.43;;
11835;SDS011;5977;51.972;7.640;2022-12-07T03:30:20;154.80;;;48.80;;
11835;SDS011;5977;51.972;7.640;2022-12-07T03:32:50;155.17;;;48.90;;
11835;SDS011;5977;51.972;7.640;2022-12-07T03:35:25;154.43;;;48.60;;
11835;SDS011;5977;51.972;7.640;2022-12-07T03:37:57;154.63;;;48.77;;
11835;SDS011;5977;51.972;7.640;2022-12-07T03:40:28;154.43;;;48.73;;
11835;SDS011;5977;51.972;7.640;2022-12-07T03:43:00;155.00;;;48.83;;
11835;SDS011;5977;51.972;7.640;2022-12-07T03:45:31;154.60;;;48.60;;
11835;SDS011;5977;51.972;7.640;2022-12-07T03:48:05;154.27;;;48.67;;
11835;SDS011;5977;51.972;7.640;2022-12-07T03:50:38;154.97;;;49.00;;
11835;SDS011;5977;51.972;7.640;2022-12-07T03:53:11;154.53;;;48.70;;
11835;SDS011;5977;51.972;7.640;2022-12-07T03:55:43;154.43;;;48.57;;
11835;SDS011;5977;51.972;7.640;2022-12-07T03:58:13;154.53;;;48.73;;
11835;SDS011;5977;51.972;7.640;2022-12-07T04:00:46;154.60;;;48.73;;
11835;SDS011;5977;51.972;7.640;2022-12-07T04:03:15;154.50;;;48.73;;
11835;SDS011;5977;51.972;7.640;2022-12-07T04:05:43;154.43;;;48.60;;
11835;SDS011;5977;51.972;7.640;2022-12-07T04:08:11;155.10;;;48.97;;
11835;SDS011;5977;51.972;7.640;2022-12-07T04:10:39;154.93;;;48.87;;
11835;SDS011;5977;51.972;7.640;2022-12-07T04:13:07;154.47;;;48.60;;
11835;SDS011;5977;51.972;7.640;2022-12-07T04:15:35;155.03;;;49.00;;
11835;SDS011;5977;51.972;7.640;2022-12-07T04:18:04;154.40;;;48.57;;
11835;SDS011;5977;51.972;7.640;2022-12-07T04:20:32;155.03;;;48.90;;
11835;SDS011;5977;51.972;7.640;2022-12-07T04:23:00;155.23;;;49.00;;
11835;SDS011;5977;51.972;7.640;2022-12-07T04:25:28;154.83;;;48.93;;
11835;SDS011;5977;51.972;7.640;2022-12-07T04:27:56;155.17;;;49.00;;
11835;SDS011;5977;51.972;7.640;2022-12-07T04:30:24;155.10;;;49.00;;
11835;SDS011;5977;51.972;7.640;2022-12-07T04:32:52;154.17;;;48.63;;
11835;SDS011;5977;51.972;7.640;2022-12-07T04:35:21;154.83;;;48.77;;
11835;SDS011;5977;51.972;7.640;2022-12-07T04:37:49;155.10;;;48.90;;
11835;SDS011;5977;51.972;7.640;2022-12-07T04:40:17;155.33;;;49.03;;
11835;SDS011;5977;51.972;7.640;2022-12-07T04:42:45;154.23;;;48.70;;
11835;SDS011;5977;51.972;7.640;2022-12-07T04:45:13;154.37;;;48.57;;
11835;SDS011;5977;51.972;7.640;2022-12-07T04:47:41;154.40;;;48.73;;
11835;SDS011;5977;51.972;7.640;2022-12-07T04:50:11;154.70;;;48.90;;
11835;SDS011;5977;51.972;7.640;2022-12-07T04:52:41;154.07;;;48.60;;
11835;SDS011;5977;51.972;7.640;2022-12-07T04:55:09;154.77;;;48.80;;
11835;SDS011;5977;51.972;7.640;2022-12-07T04:57:37;154.67;;;48.70;;
11835;SDS011;5977;51.972;7.640;2022-12-07T05:00:05;154.60;;;48.70;;
11835;SDS011;5977;51.972;7.640;2022-12-07T05:02:34;154.43;;;48.73;;
11835;SDS011;5977;51.972;7.640;2022-12-07T05:05:02;154.57;;;48.77;;
11835;SDS011;5977;51.972;7.640;2022-12-07T05:07:30;154.50;;;48.70;;
11835;SDS011;5977;51.972;7.640;2022-12-07T05:10:00;154.50;;;48.87;;
11835;SDS011;5977;51.972;7.640;2022-12-07T05:12:28;154.37;;;48.67;;
11835;SDS011;5977;51.972;7.640;2022-12-07T05:14:56;155.33;;;49.07;;
11835;SDS011;5977;51.972;7.640;2022-12-07T05:17:24;154.80;;;48.90;;
11835;SDS011;5977;51.972;7.640;2022-12-07T05:19:51;154.87;;;48.80;;
11835;SDS011;5977;51.972;7.640;2022-12-07T05:22:19;154.47;;;48.80;;
11835;SDS011;5977;51.972;7.640;2022-12-07T05:24:47;154.07;;;48.47;;
11835;SDS011;5977;51.972;7.640;2022-12-07T05:27:16;154.20;;;48.63;;
11835;SDS011;5977;51.972;7.640;2022-12-07T05:29:44;154.63;;;48.87;;
11835;SDS011;5977;51.972;7.640;2022-12-07T05:32:12;155.03;;;49.00;;
11835;SDS011;5977;51.972;7.640;2022-12-07T05:34:40;154.63;;;48.87;;
11835;SDS011;5977;51.972;7.640;2022-12-07T05:37:09;154.80;;;48.93;;
11835;SDS011;5977;51.972;7.640;2022-12-07T05:39:36;154.67;;;48.87;;
11835;SDS011;5977;51.972;7.640;2022-12-07T05:42:07;154.37;;;48.70;;
11835;SDS011;5977;51.972;7.640;2022-12-07T05:44:40;154.63;;;48.90;;
11835;SDS011;5977;51.972;7.640;2022-12-07T05:47:10;153.83;;;48.43;;
11835;SDS011;5977;51.972;7.640;2022-12-07T05:49:38;154.37;;;48.73;;
11835;SDS011;5977;51.972;7.640;2022-12-07T05:52:06;154.37;;;48.67;;
11835;SDS011;5977;51.972;7.640;2022-12-07T05:54:34;154.13;;;48.53;;
11835;SDS011;5977;51.972;7.640;2022-12-07T05:57:02;154.13;;;48.57;;
11835;SDS011;5977;51.972;7.640;2022-12-07T05:59:30;154.40;;;48.67;;
11835;SDS011;5977;51.972;7.640;2022-12-07T06:01:59;154.07;;;48.57;;
11835;SDS011;5977;51.972;7.640;2022-12-07T06:04:29;154.33;;;48.67;;
11835;SDS011;5977;51.972;7.640;2022-12-07T06:06:58;154.67;;;48.67;;
11835;SDS011;5977;51.972;7.640;2022-12-07T06:09:26;154.00;;;48.43;;
11835;SDS011;5977;51.972;7.640;2022-12-07T06:11:55;154.27;;;48.73;;
11835;SDS011;5977;51.972;7.640;2022-12-07T06:14:41;154.30;;;48.83;;
11835;SDS011;5977;51.972;7.640;2022-12-07T06:17:11;154.47;;;48.87;;
11835;SDS011;5977;51.972;7.640;2022-12-07T06:19:39;154.60;;;48.87;;
11835;SDS011;5977;51.972;7.640;2022-12-07T06:22:07;154.40;;;48.77;;
11835;SDS011;5977;51.972;7.640;2022-12-07T06:24:37;154.37;;;48.77;;
11835;SDS011;5977;51.972;7.640;2022-12-07T06:27:06;154.03;;;48.63;;
11835;SDS011;5977;51.972;7.640;2022-12-07T06:29:33;153.90;;;48.57;;
11835;SDS011;5977;51.972;7.640;2022-12-07T06:32:01;154.33;;;48.83;;
11835;SDS011;5977;51.972;7.640;2022-12-07T06:34:31;153.93;;;48.50;;
11835;SDS011;5977;51.972;7.640;2022-12-07T06:36:59;154.17;;;48.63;;
11835;SDS011;5977;51.972;7.640;2022-12-07T06:39:27;154.43;;;48.70;;
11835;SDS011;5977;51.972;7.640;2022-12-07T06:41:56;154.60;;;48.73;;
11835;SDS011;5977;51.972;7.640;2022-12-07T06:44:24;154.47;;;48.73;;
11835;SDS011;5977;51.972;7.640;2022-12-07T06:46:53;154.03;;;48.57;;
11835;SDS011;5977;51.972;7.640;2022-12-07T06:49:42;154.23;;;48.60;;
11835;SDS011;5977;51.972;7.640;2022-12-07T06:52:10;153.60;;;48.43;;
11835;SDS011;5977;51.972;7.640;2022-12-07T06:54:37;153.97;;;48.47;;
11835;SDS011;5977;51.972;7.640;2022-12-07T06:57:05;154.57;;;48.73;;
11835;SDS011;5977;51.972;7.640;2022-12-07T06:59:33;153.97;;;48.50;;
11835;SDS011;5977;51.972;7.640;2022-12-07T07:02:01;153.90;;;48.57;;
11835;SDS011;5977;51.972;7.640;2022-12-07T07:04:29;154.63;;;48.80;;
11835;SDS011;5977;51.972;7.640;2022-12-07T07:06:58;154.13;;;48.57;;
11835;SDS011;5977;51.972;7.640;2022-12-07T07:09:26;154.60;;;48.83;;
11835;SDS011;5977;51.972;7.640;2022-12-07T07:11:54;153.67;;;48.40;;
11835;SDS011;5977;51.972;7.640;2022-12-07T07:14:22;154.10;;;48.60;;
11835;SDS011;5977;51.972;7.640;2022-12-07T07:16:49;153.93;;;48.50;;
11835;SDS011;5977;51.972;7.640;2022-12-07T07:19:17;153.73;;;48.40;;
11835;SDS011;5977;51.972;7.640;2022-12-07T07:21:45;153.90;;;48.57;;
11835;SDS011;5977;51.972;7.640;2022-12-07T07:24:14;154.27;;;48.63;;
11835;SDS011;5977;51.972;7.640;2022-12-07T07:26:42;154.73;;;48.87;;
11835;SDS011;5977;51.972;7.640;2022-12-07T07:29:10;154.07;;;48.67;;
11835;SDS011;5977;51.972;7.640;2022-12-07T07:31:38;153.60;;;48.40;;
11835;SDS011;5977;51.972;7.640;2022-12-07T07:34:06;153.77;;;48.60;;
11835;SDS011;5977;51.972;7.640;2022-12-07T07:36:34;153.73;;;48.60;;
11835;SDS011;5977;51.972;7.640;2022-12-07T07:39:02;153.90;;;48.67;;
11835;SDS011;5977;51.972;7.640;2022-12-07T07:41:32;153.90;;;48.70;;
11835;SDS011;5977;51.972;7.640;2022-12-07T07:44:01;153.70;;;48.50;;
11835;SDS011;5977;51.972;7.640;2022-12-07T07:46:29;153.83;;;48.60;;
11835;SDS011;5977;51.972;7.640;2022-12-07T07:48:59;153.97;;;48.73;;
11835;SDS011;5977;51.972;7.640;2022-12-07T07:51:27;153.43;;;48.50;;
11835;SDS011;5977;51.972;7.640;2022-12-07T07:53:55;154.27;;;48.70;;
11835;SDS011;5977;51.972;7.640;2022-12-07T07:56:22;153.80;;;48.57;;
11835;SDS011;5977;51.972;7.640;2022-12-07T07:58:52;153.70;;;48.47;;
11835;SDS011;5977;51.972;7.640;2022-12-07T08:01:20;154.03;;;48.67;;
11835;SDS011;5977;51.972;7.640;2022-12-07T08:03:48;153.93;;;48.63;;
11835;SDS011;5977;51.972;7.640;2022-12-07T08:06:16;154.10;;;48.63;;
11835;SDS011;5977;51.972;7.640;2022-12-07T08:08:44;153.97;;;48.67;;
11835;SDS011;5977;51.972;7.640;2022-12-07T08:11:12;154.27;;;48.70;;
11835;SDS011;5977;51.972;7.640;2022-12-07T08:13:40;153.37;;;48.40;;
11835;SDS011;5977;51.972;7.640;2022-12-07T08:16:09;153.60;;;48.43;;
11835;SDS011;5977;51.972;7.640;2022-12-07T08:18:38;153.63;;;48.43;;
11835;SDS011;5977;51.972;7.640;2022-12-07T08:21:08;154.40;;;48.77;;
11835;SDS011;5977;51.972;7.640;2022-12-07T08:23:38;153.70;;;48.53;;
11835;SDS011;5977;51.972;7.640;2022-12-07T08:26:08;153.80;;;48.53;;
11835;SDS011;5977;51.972;7.640;2022-12-07T08:28:42;153.93;;;48.63;;
11835;SDS011;5977;51.972;7.640;2022-12-07T08:31:13;153.97;;;48.43;;
11835;SDS011;5977;51.972;7.640;2022-12-07T08:33:44;154.50;;;48.80;;
11835;SDS011;5977;51.972;7.640;2022-12-07T08:36:12;154.37;;;48.73;;
11835;SDS011;5977;51.972;7.640;2022-12-07T08:38:41;154.43;;;48.83;;
11835;SDS011;5977;51.972;7.640;2022-12-07T08:41:29;154.60;;;48.73;;
11835;SDS011;5977;51.972;7.640;2022-12-07T08:43:57;154.87;;;48.90;;
11835;SDS011;5977;51.972;7.640;2022-12-07T08:46:26;154.60;;;48.87;;
11835;SDS011;5977;51.972;7.640;2022-12-07T08:49:02;155.27;;;49.07;;
11835;SDS011;5977;51.972;7.640;2022-12-07T08:51:31;155.73;;;49.23;;
11835;SDS011;5977;51.972;7.640;2022-12-07T08:54:00;156.07;;;49.30;;
11835;SDS011;5977;51.972;7.640;2022-12-07T08:56:31;156.57;;;49.50;;
11835;SDS011;5977;51.972;7.640;2022-12-07T08:58:59;156.80;;;49.60;;
11835;SDS011;5977;51.972;7.640;2022-12-07T09:01:28;157.03;;;49.60;;
11835;SDS011;5977;51.972;7.640;2022-12-07T09:03:57;158.00;;;49.77;;
11835;SDS011;5977;51.972;7.640;2022-12-07T09:06:25;157.67;;;49.63;;
11835;SDS011;5977;51.972;7.640;2022-12-07T09:08:54;156.90;;;49.43;;
11835;SDS011;5977;51.972;7.640;2022-12-07T09:11:25;156.07;;;49.17;;
11835;SDS011;5977;51.972;7.640;2022-12-07T09:13:54;156.67;;;49.37;;
11835;SDS011;5977;51.972;7.640;2022-12-07T09:16:22;156.53;;;49.33;;
11835;SDS011;5977;51.972;7.640;2022-12-07T09:18:51;155.87;;;48.97;;
11835;SDS011;5977;51.972;7.640;2022-12-07T09:21:19;155.50;;;49.13;;
11835;SDS011;5977;51.972;7.640;2022-12-07T09:23:47;156.23;;;49.30;;
11835;SDS011;5977;51.972;7.640;2022-12-07T09:26:15;156.37;;;49.33;;
11835;SDS011;5977;51.972;7.640;2022-12-07T09:28:43;156.03;;;49.20;;
11835;SDS011;5977;51.972;7.640;2022-12-07T09:31:10;156.17;;;49.20;;
11835;SDS011;5977;51.972;7.640;2022-12-07T09:33:55;156.20;;;49.13;;
11835;SDS011;5977;51.972;7.640;2022-12-07T09:36:25;156.37;;;49.23;;
11835;SDS011;5977;51.972;7.640;2022-12-07T09:38:54;156.17;;;49.27;;
11835;SDS011;5977;51.972;7.640;2022-12-07T09:41:22;155.13;;;48.97;;
11835;SDS011;5977;51.972;7.640;2022-12-07T09:43:51;156.10;;;49.07;;
11835;SDS011;5977;51.972;7.640;2022-12-07T09:46:20;155.60;;;49.20;;
11835;SDS011;5977;51.972;7.640;2022-12-07T09:48:49;155.77;;;48.97;;
11835;SDS011;5977;51.972;7.640;2022-12-07T09:51:19;156.63;;;49.47;;
11835;SDS011;5977;51.972;7.640;2022-12-07T09:53:51;156.57;;;49.43;;
11835;SDS011;5977;51.972;7.640;2022-12-07T09:56:20;156.33;;;49.30;;
11835;SDS011;5977;51.972;7.640;2022-12-07T09:58:49;157.23;;;49.57;;
11835;SDS011;5977;51.972;7.640;2022-12-07T10:01:22;156.80;;;49.40;;
11835;SDS011;5977;51.972;7.640;2022-12-07T10:03:51;156.47;;;49.30;;
11835;SDS011;5977;51.972;7.640;2022-12-07T10:06:22;156.50;;;49.17;;
11835;SDS011;5977;51.972;7.640;2022-12-07T10:08:50;156.80;;;49.53;;
11835;SDS011;5977;51.972;7.640;2022-12-07T10:11:18;156.30;;;49.37;;
11835;SDS011;5977;51.972;7.640;2022-12-07T10:13:46;156.80;;;49.47;;
11835;SDS011;5977;51.972;7.640;2022-12-07T10:16:32;156.90;;;49.43;;
11835;SDS011;5977;51.972;7.640;2022-12-07T10:19:17;156.40;;;49.40;;
11835;SDS011;5977;51.972;7.640;2022-12-07T10:22:01;157.23;;;49.57;;
11835;SDS011;5977;51.972;7.640;2022-12-07T10:24:31;156.70;;;49.40;;
11835;SDS011;5977;51.972;7.640;2022-12-07T10:26:59;157.40;;;49.53;;
11835;SDS011;5977;51.972;7.640;2022-12-07T10:29:28;158.20;;;50.03;;
11835;SDS011;5977;51.972;7.640;2022-12-07T10:31:58;157.90;;;49.80;;
11835;SDS011;5977;51.972;7.640;2022-12-07T10:34:28;157.13;;;49.37;;
11835;SDS011;5977;51.972;7.640;2022-12-07T10:37:15;157.77;;;49.83;;
11835;SDS011;5977;51.972;7.640;2022-12-07T10:39:45;157.80;;;49.67;;
11835;SDS011;5977;51.972;7.640;2022-12-07T10:42:18;157.30;;;49.50;;
11835;SDS011;5977;51.972;7.640;2022-12-07T10:44:47;157.13;;;49.40;;
11835;SDS011;5977;51.972;7.640;2022-12-07T10:47:20;157.97;;;49.80;;
11835;SDS011;5977;51.972;7.640;2022-12-07T10:52:56;157.17;;;49.37;;
11835;SDS011;5977;51.972;7.640;2022-12-07T10:55:38;156.97;;;49.37;;
11835;SDS011;5977;51.972;7.640;2022-12-07T10:58:22;156.83;;;49.27;;
11835;SDS011;5977;51.972;7.640;2022-12-07T11:01:03;157.37;;;49.60;;
11835;SDS011;5977;51.972;7.640;2022-12-07T11:03:46;157.27;;;49.57;;
11835;SDS011;5977;51.972;7.640;2022-12-07T11:06:31;156.87;;;49.47;;
11835;SDS011;5977;51.972;7.640;2022-12-07T11:09:20;157.10;;;49.47;;
11835;SDS011;5977;51.972;7.640;2022-12-07T11:12:34;156.90;;;49.33;;
11835;SDS011;5977;51.972;7.640;2022-12-07T11:15:24;156.20;;;49.17;;
11835;SDS011;5977;51.972;7.640;2022-12-07T11:17:56;157.07;;;49.47;;
11835;SDS011;5977;51.972;7.640;2022-12-07T11:20:39;157.43;;;49.70;;
11835;SDS011;5977;51.972;7.640;2022-12-07T11:23:15;157.30;;;49.67;;
11835;SDS011;5977;51.972;7.640;2022-12-07T11:25:52;157.20;;;49.47;;
11835;SDS011;5977;51.972;7.640;2022-12-07T11:28:34;157.20;;;49.33;;
11835;SDS011;5977;51.972;7.640;2022-12-07T11:31:16;158.03;;;49.83;;
11835;SDS011;5977;51.972;7.640;2022-12-07T11:34:10;156.80;;;49.27;;
11835;SDS011;5977;51.972;7.640;2022-12-07T11:36:46;156.70;;;49.23;;
11835;SDS011;5977;51.972;7.640;2022-12-07T11:39:20;157.60;;;49.70;;
11835;SDS011;5977;51.972;7.640;2022-12-07T11:41:55;157.43;;;49.53;;
11835;SDS011;5977;51.972;7.640;2022-12-07T11:44:30;157.20;;;49.53;;
11835;SDS011;5977;51.972;7.640;2022-12-07T11:47:01;157.07;;;49.40;;
11835;SDS011;5977;51.972;7.640;2022-12-07T11:49:39;157.03;;;49.40;;
11835;SDS011;5977;51.972;7.640;2022-12-07T11:52:13;157.20;;;49.40;;
11835;SDS011;5977;51.972;7.640;2022-12-07T11:54:47;157.40;;;49.40;;
11835;SDS011;5977;51.972;7.640;2022-12-07T11:57:25;157.27;;;49.37;;
11835;SDS011;5977;51.972;7.640;2022-12-07T12:00:00;156.67;;;49.20;;
11835;SDS011;5977;51.972;7.640;2022-12-07T12:02:32;157.67;;;49.53;;
11835;SDS011;5977;51.972;7.640;2022-12-07T12:05:05;156.80;;;49.47;;
11835;SDS011;5977;51.972;7.640;2022-12-07T12:07:42;156.77;;;49.27;;
11835;SDS011;5977;51.972;7.640;2022-12-07T12:10:36;157.07;;;49.40;;
11835;SDS011;5977;51.972;7.640;2022-12-07T12:13:14;157.10;;;49.30;;
11835;SDS011;5977;51.972;7.640;2022-12-07T12:16:23;156.50;;;49.10;;
11835;SDS011;5977;51.972;7.640;2022-12-07T12:19:11;157.00;;;49.37;;
11835;SDS011;5977;51.972;7.640;2022-12-07T12:21:53;156.67;;;49.27;;
11835;SDS011;5977;51.972;7.640;2022-12-07T12:24:25;157.00;;;49.37;;
11835;SDS011;5977;51.972;7.640;2022-12-07T12:26:56;156.60;;;49.33;;
11835;SDS011;5977;51.972;7.640;2022-12-07T12:29:33;157.30;;;49.47;;
11835;SDS011;5977;51.972;7.640;2022-12-07T12:32:06;156.80;;;49.20;;
11835;SDS011;5977;51.972;7.640;2022-12-07T12:34:41;157.10;;;49.60;;
11835;SDS011;5977;51.972;7.640;2022-12-07T12:37:41;156.90;;;49.30;;
11835;SDS011;5977;51.972;7.640;2022-12-07T12:46:37;157.07;;;49.53;;
11835;SDS011;5977;51.972;7.640;2022-12-07T12:58:42;156.83;;;49.37;;
11835;SDS011;5977;51.972;7.640;2022-12-07T13:04:47;156.50;;;49.20;;
11835;SDS011;5977;51.972;7.640;2022-12-07T13:10:22;156.90;;;49.47;;
11835;SDS011;5977;51.972;7.640;2022-12-07T13:13:03;157.57;;;49.70;;
11835;SDS011;5977;51.972;7.640;2022-12-07T13:15:51;156.80;;;49.33;;
11835;SDS011;5977;51.972;7.640;2022-12-07T13:18:24;157.13;;;49.47;;
11835;SDS011;5977;51.972;7.640;2022-12-07T13:21:39;156.53;;;49.20;;
11835;SDS011;5977;51.972;7.640;2022-12-07T13:24:15;156.30;;;49.20;;
11835;SDS011;5977;51.972;7.640;2022-12-07T13:26:45;157.30;;;49.60;;
11835;SDS011;5977;51.972;7.640;2022-12-07T13:29:13;156.67;;;49.17;;
11835;SDS011;5977;51.972;7.640;2022-12-07T13:31:43;156.90;;;49.43;;
11835;SDS011;5977;51.972;7.640;2022-12-07T13:34:29;156.23;;;49.00;;
11835;SDS011;5977;51.972;7.640;2022-12-07T13:36:58;156.63;;;49.37;;
11835;SDS011;5977;51.972;7.640;2022-12-07T13:39:32;156.73;;;49.30;;
11835;SDS011;5977;51.972;7.640;2022-12-07T13:42:06;156.53;;;49.13;;
11835;SDS011;5977;51.972;7.640;2022-12-07T13:44:42;156.43;;;49.13;;
11835;SDS011;5977;51.972;7.640;2022-12-07T13:47:12;156.53;;;49.10;;
11835;SDS011;5977;51.972;7.640;2022-12-07T13:49:46;157.10;;;49.47;;
11835;SDS011;5977;51.972;7.640;2022-12-07T13:52:20;156.77;;;49.30;;
11835;SDS011;5977;51.972;7.640;2022-12-07T13:54:55;157.40;;;49.60;;
11835;SDS011;5977;51.972;7.640;2022-12-07T13:57:27;157.33;;;49.53;;
11835;SDS011;5977;51.972;7.640;2022-12-07T13:59:57;156.00;;;49.03;;
11835;SDS011;5977;51.972;7.640;2022-12-07T14:02:27;156.77;;;49.40;;
11835;SDS011;5977;51.972;7.640;2022-12-07T14:05:07;156.60;;;49.23;;
11835;SDS011;5977;51.972;7.640;2022-12-07T14:07:47;157.20;;;49.43;;
11835;SDS011;5977;51.972;7.640;2022-12-07T14:10:24;156.83;;;49.37;;
11835;SDS011;5977;51.972;7.640;2022-12-07T14:12:56;156.73;;;49.33;;
11835;SDS011;5977;51.972;7.640;2022-12-07T14:15:25;156.37;;;49.10;;
11835;SDS011;5977;51.972;7.640;2022-12-07T14:17:57;156.63;;;49.20;;
11835;SDS011;5977;51.972;7.640;2022-12-07T14:20:29;156.73;;;49.27;;
11835;SDS011;5977;51.972;7.640;2022-12-07T14:22:59;157.03;;;49.47;;
11835;SDS011;5977;51.972;7.640;2022-12-07T14:25:45;156.67;;;49.27;;
11835;SDS011;5977;51.972;7.640;2022-12-07T14:28:26;156.63;;;49.23;;
11835;SDS011;5977;51.972;7.640;2022-12-07T14:30:55;156.30;;;49.10;;
11835;SDS011;5977;51.972;7.640;2022-12-07T14:33:23;156.30;;;49.23;;
11835;SDS011;5977;51.972;7.640;2022-12-07T14:35:52;157.13;;;49.47;;
11835;SDS011;5977;51.972;7.640;2022-12-07T14:38:21;157.80;;;49.77;;
11835;SDS011;5977;51.972;7.640;2022-12-07T14:40:51;157.47;;;49.67;;
11835;SDS011;5977;51.972;7.640;2022-12-07T14:43:20;156.90;;;49.50;;
11835;SDS011;5977;51.972;7.640;2022-12-07T14:45:48;156.33;;;49.10;;
11835;SDS011;5977;51.972;7.640;2022-12-07T14:48:16;156.67;;;49.37;;
11835;SDS011;5977;51.972;7.640;2022-12-07T14:51:04;156.63;;;49.27;;
11835;SDS011;5977;51.972;7.640;2022-12-07T14:53:52;157.23;;;49.53;;
11835;SDS011;5977;51.972;7.640;2022-12-07T14:56:24;156.33;;;49.17;;
11835;SDS011;5977;51.972;7.640;2022-12-07T14:58:53;156.27;;;49.07;;
11835;SDS011;5977;51.972;7.640;2022-12-07T15:01:21;157.03;;;49.50;;
11835;SDS011;5977;51.972;7.640;2022-12-07T15:03:49;156.67;;;49.37;;
11835;SDS011;5977;51.972;7.640;2022-12-07T15:06:17;156.60;;;49.30;;
11835;SDS011;5977;51.972;7.640;2022-12-07T15:08:45;156.77;;;49.30;;
11835;SDS011;5977;51.972;7.640;2022-12-07T15:11:13;156.13;;;49.13;;
11835;SDS011;5977;51.972;7.640;2022-12-07T15:13:43;156.23;;;49.17;;